^^
Station Historical Data
Daily Summary for June 17, 2017 Units:  English    Metric   Both
« Previous Day
Next Day »
Daily Weekly Monthly Yearly Custom
  High: Low: Average:
Temperature: 71.5 °F 63.1 °F 67.3 °F
Dew Point: 69.9 °F 62.2 °F 66 °F
Humidity: 98% 91% 96%
Wind Speed: 2.0mph 0.0mph 0.2mph
Wind Gust: 6.0mph - -
Wind- - SW
Pressure: 29.97 in 29.91 in -
Precipitation: 0.26 in    
Historical Graphs
 
 
Tabular Data for June 17, 2017
Time Temperature Dew Point Pressure Wind Wind Speed Wind Gust Humidity Rainfall Rate (Hourly) Conditions
00:00 63.1 °F 62.2 °F 29.95 in Calm   1.0 mph 97% 0.00 in RA
00:15 63.2 °F 62.3 °F 29.95 in Calm   1.0 mph 97% 0.00 in CLR
00:30 63.2 °F 62.3 °F 29.95 in Calm   1.0 mph 97% 0.00 in CLR
00:45 63.1 °F 62.2 °F 29.95 in Calm   2.0 mph 97% 0.00 in CLR
01:00 63.2 °F 62.3 °F 29.94 in Calm   1.0 mph 97% 0.00 in CLR
01:15 63.1 °F 62.2 °F 29.94 in Calm   1.0 mph 97% 0.00 in CLR
01:30 63.2 °F 62.3 °F 29.94 in Calm     97% 0.00 in CLR
01:45 63.2 °F 62.3 °F 29.94 in Calm   1.0 mph 97% 0.00 in CLR
02:00 63.2 °F 62.3 °F 29.94 in Calm     97% 0.00 in CLR
02:15 63.2 °F 62.4 °F 29.94 in Calm     97% 0.00 in CLR
02:30 63.3 °F 62.4 °F 29.93 in Calm   2.0 mph 97% 0.00 in CLR
02:45 63.3 °F 62.4 °F 29.93 in Calm   1.0 mph 97% 0.00 in CLR
03:00 63.4 °F 62.5 °F 29.93 in Calm   1.0 mph 97% 0.00 in CLR
03:15 63.4 °F 62.5 °F 29.93 in Calm   1.0 mph 97% 0.00 in CLR
03:30 63.4 °F 62.5 °F 29.93 in Calm   1.0 mph 97% 0.00 in CLR
03:45 63.3 °F 62.4 °F 29.93 in Calm   3.0 mph 97% 0.00 in CLR
04:00 63.3 °F 62.4 °F 29.93 in Calm   1.0 mph 97% 0.00 in CLR
04:15 63.4 °F 62.5 °F 29.93 in Calm     97% 0.00 in CLR
04:30 63.4 °F 62.5 °F 29.93 in Calm     97% 0.00 in CLR
04:45 63.4 °F 62.5 °F 29.93 in Calm   1.0 mph 97% 0.00 in CLR
05:00 63.4 °F 62.5 °F 29.93 in Calm   1.0 mph 97% 0.00 in CLR
05:15 63.4 °F 62.5 °F 29.93 in Calm   1.0 mph 97% 0.00 in CLR
05:30 63.4 °F 62.5 °F 29.93 in Calm     97% 0.00 in CLR
05:45 63.5 °F 62.6 °F 29.93 in Calm     97% 0.00 in CLR
06:00 63.6 °F 62.7 °F 29.93 in Calm     97% 0.00 in CLR
06:15 63.7 °F 63.1 °F 29.92 in Calm   1.0 mph 98% 0.00 in CLR
06:30 63.7 °F 63.1 °F 29.94 in Calm   1.0 mph 98% 0.00 in CLR
06:45 63.8 °F 63.2 °F 29.94 in Calm   1.0 mph 98% 0.00 in CLR
07:00 63.8 °F 62.9 °F 29.94 in Calm   1.0 mph 97% 0.00 in CLR
07:15 64.1 °F 63.5 °F 29.94 in Calm   1.0 mph 98% 0.00 in CLR
07:30 64.1 °F 63.2 °F 29.93 in Calm   1.0 mph 97% 0.00 in CLR
07:45 64.3 °F 63.4 °F 29.94 in Calm   2.0 mph 97% 0.00 in CLR
08:00 64.4 °F 63.5 °F 29.95 in Calm   1.0 mph 97% 0.00 in CLR
08:15 64.7 °F 63.8 °F 29.95 in Calm   1.0 mph 97% 0.00 in CLR
08:30 64.7 °F 63.8 °F 29.95 in Calm   1.0 mph 97% 0.00 in CLR
08:45 65.4 °F 64.8 °F 29.96 in Calm   1.0 mph 98% 0.00 in CLR
09:00 65.5 °F 64.6 °F 29.97 in Calm   2.0 mph 97% 0.00 in CLR
09:15 65.7 °F 64.8 °F 29.97 in Calm   2.0 mph 97% 0.00 in CLR
09:30 66.4 °F 65.5 °F 29.96 in Calm   1.0 mph 97% 0.00 in CLR
09:45 67.0 °F 66.1 °F 29.96 in Calm   2.0 mph 97% 0.00 in CLR
10:00 67.7 °F 66.8 °F 29.96 in Calm   2.0 mph 97% 0.00 in CLR
10:15 68.4 °F 67.2 °F 29.96 in South 1.0 mph 3.0 mph 96% 0.00 in CLR
10:30 69.2 °F 67.7 °F 29.96 in Calm   2.0 mph 95% 0.00 in CLR
10:45 68.6 °F 66.8 °F 29.95 in West 1.0 mph 3.0 mph 94% 0.00 in CLR
11:00 69.4 °F 67.6 °F 29.95 in Calm   2.0 mph 94% 0.00 in CLR
11:15 70.6 °F 68.2 °F 29.95 in SW 1.0 mph 2.0 mph 92% 0.00 in OVC
11:30 70.8 °F 68.0 °F 29.95 in WSW 1.0 mph 3.0 mph 91% 0.00 in OVC
11:45 70.7 °F 67.9 °F 29.95 in Calm   2.0 mph 91% 0.00 in OVC
12:00 70.5 °F 67.7 °F 29.95 in Calm   5.0 mph 91% 0.00 in OVC
12:15 70.2 °F 67.8 °F 29.95 in Calm   3.0 mph 92% 0.00 in CLR
12:30 69.6 °F 67.2 °F 29.95 in Calm   3.0 mph 92% 0.01 in RA
12:45 68.9 °F 67.1 °F 29.95 in Calm   2.0 mph 94% 0.03 in RA
13:00 68.5 °F 67.0 °F 29.95 in Calm   2.0 mph 95% 0.05 in RA
13:15 68.2 °F 67.0 °F 29.95 in Calm   2.0 mph 96% 0.02 in RA
13:30 68.1 °F 66.9 °F 29.95 in Calm   3.0 mph 96% 0.03 in RA
13:45 68.4 °F 67.5 °F 29.95 in Calm   1.0 mph 97% 0.01 in RA
14:00 68.7 °F 67.8 °F 29.95 in Calm   2.0 mph 97% 0.01 in RA
14:15 68.9 °F 68.0 °F 29.95 in Calm   2.0 mph 97% 0.00 in -RA
14:30 69.0 °F 68.1 °F 29.95 in SW 1.0 mph 2.0 mph 97% 0.04 in -RA
14:45 69.3 °F 68.4 °F 29.94 in Calm   3.0 mph 97% 0.04 in -RA
15:00 69.3 °F 68.4 °F 29.95 in SSW 1.0 mph 3.0 mph 97% 0.02 in -RA
15:15 69.2 °F 68.3 °F 29.94 in WSW 1.0 mph 3.0 mph 97% 0.00 in -RA
15:30 70.0 °F 69.1 °F 29.94 in Calm   6.0 mph 97% 0.00 in -RA
15:45 70.2 °F 69.0 °F 29.94 in WSW 1.0 mph 5.0 mph 96% 0.00 in -RA
16:00 70.3 °F 69.1 °F 29.94 in Calm   4.0 mph 96% 0.00 in -RA
16:15 70.7 °F 69.5 °F 29.93 in Calm   5.0 mph 96% 0.00 in OVC
16:30 71.4 °F 69.9 °F 29.93 in WSW 1.0 mph 4.0 mph 95% 0.00 in OVC
16:45 70.9 °F 69.1 °F 29.93 in SW 1.0 mph 4.0 mph 94% 0.00 in OVC
17:00 70.9 °F 69.1 °F 29.92 in SW 1.0 mph 4.0 mph 94% 0.00 in OVC
17:15 71.2 °F 69.4 °F 29.92 in Calm   4.0 mph 94% 0.00 in OVC
17:30 71.5 °F 69.4 °F 29.91 in SSW 1.0 mph 5.0 mph 93% 0.00 in OVC
17:45 71.2 °F 69.1 °F 29.91 in SW 1.0 mph 5.0 mph 93% 0.00 in OVC
18:00 70.6 °F 68.5 °F 29.92 in SSW 2.0 mph 5.0 mph 93% 0.00 in OVC
18:15 70.6 °F 68.8 °F 29.92 in SW 1.0 mph 4.0 mph 94% 0.00 in CLR
18:30 70.7 °F 68.9 °F 29.93 in SSW 1.0 mph 5.0 mph 94% 0.00 in CLR
18:45 70.6 °F 68.8 °F 29.93 in Calm   5.0 mph 94% 0.00 in CLR
19:00 71.0 °F 69.2 °F 29.93 in Calm   3.0 mph 94% 0.00 in CLR
19:15 71.1 °F 69.0 °F 29.93 in Calm   4.0 mph 93% 0.00 in CLR
19:30 71.1 °F 69.0 °F 29.92 in Calm   2.0 mph 93% 0.00 in CLR
19:45 71.0 °F 68.9 °F 29.93 in Calm   2.0 mph 93% 0.00 in CLR
20:00 70.8 °F 68.7 °F 29.93 in Calm   1.0 mph 93% 0.00 in CLR
20:15 70.5 °F 68.7 °F 29.93 in Calm   1.0 mph 94% 0.00 in CLR
20:30 70.3 °F 68.5 °F 29.93 in Calm   1.0 mph 94% 0.00 in CLR
20:45 69.8 °F 68.0 °F 29.93 in Calm   2.0 mph 94% 0.00 in CLR
21:00 69.6 °F 68.1 °F 29.93 in Calm   2.0 mph 95% 0.00 in CLR
21:15 69.4 °F 67.9 °F 29.93 in NW 1.0 mph 3.0 mph 95% 0.00 in CLR
21:30 69.3 °F 68.1 °F 29.93 in Calm   2.0 mph 96% 0.00 in CLR
21:45 69.2 °F 68.0 °F 29.93 in Calm   2.0 mph 96% 0.00 in CLR
22:00 69.0 °F 67.8 °F 29.93 in Calm   2.0 mph 96% 0.00 in CLR
22:15 68.8 °F 67.6 °F 29.94 in Calm   3.0 mph 96% 0.00 in CLR
22:30 68.6 °F 67.7 °F 29.93 in Calm   3.0 mph 97% 0.00 in CLR
22:45 68.5 °F 67.6 °F 29.93 in Calm   2.0 mph 97% 0.00 in CLR
23:00 68.4 °F 67.5 °F 29.93 in Calm   1.0 mph 97% 0.00 in CLR
23:15 68.4 °F 67.5 °F 29.93 in Calm   3.0 mph 97% 0.00 in CLR
23:30 68.3 °F 67.4 °F 29.93 in Calm   3.0 mph 97% 0.00 in CLR
TarryTown NY Weather
Compliments of Weather Underground - 1.5 mb